| time (UTC) | temp F | wind direction | speed knots | gust knots | rain 1hr in | rain 24hr in | rain mn in | humidity % | barometer mb |
| 20260506231459 | 56 | 202 | 2.6 | 2.6 | 0.00 | 0.00 | 0.00 | 84 | 1023.6 |
| 20260506230956 | 56 | 255 | 2.6 | 2.6 | 0.00 | 0.00 | 0.00 | 85 | 1023.5 |
| 20260506230452 | 56 | 209 | 2.6 | 2.6 | 0.00 | 0.00 | 0.00 | 85 | 1023.7 |
| 20260506225949 | 56 | 206 | 4.3 | 5.2 | 0.00 | 0.00 | 0.00 | 86 | 1023.5 |
| 20260506225446 | 56 | 205 | 0.9 | 0.9 | 0.00 | 0.00 | 0.00 | 86 | 1023.6 |
| 20260506224943 | 56 | 125 | 0.0 | 0.0 | 0.00 | 0.00 | 0.00 | 86 | 1023.6 |
| 20260506224441 | 55 | 261 | 0.9 | 0.9 | 0.00 | 0.00 | 0.00 | 87 | 1023.6 |
| 20260506223937 | 55 | 158 | 0.9 | 0.9 | 0.00 | 0.00 | 0.00 | 87 | 1023.6 |
| 20260506223432 | 55 | 135 | 0.0 | 0.0 | 0.00 | 0.00 | 0.00 | 87 | 1023.8 |
| 20260506222930 | 55 | 145 | 2.6 | 2.6 | 0.00 | 0.00 | 0.00 | 87 | 1023.6 |
| 20260506222426 | 55 | 104 | 0.9 | 0.9 | 0.00 | 0.00 | 0.00 | 87 | 1023.8 |
| 20260506221923 | 55 | 226 | 0.9 | 0.9 | 0.00 | 0.00 | 0.00 | 87 | 1023.8 |
| 20260506221420 | 55 | 206 | 0.9 | 0.9 | 0.00 | 0.00 | 0.00 | 87 | 1023.7 |
| 20260506220918 | 55 | 195 | 0.9 | 0.9 | 0.00 | 0.00 | 0.00 | 88 | 1023.9 |
| 20260506220413 | 55 | 191 | 2.6 | 2.6 | 0.00 | 0.00 | 0.00 | 88 | 1023.9 |
| 20260506215910 | 55 | 193 | 0.9 | 0.9 | 0.00 | 0.00 | 0.00 | 89 | 1023.7 |
| 20260506215406 | 55 | 232 | 0.9 | 1.7 | 0.00 | 0.00 | 0.00 | 89 | 1023.8 |
| 20260506214902 | 54 | 172 | 0.9 | 0.9 | 0.00 | 0.00 | 0.00 | 90 | 1023.9 |
| 20260506214359 | 55 | 236 | 0.9 | 0.9 | 0.00 | 0.00 | 0.00 | 91 | 1023.8 |
| 20260506213857 | 55 | 209 | 0.9 | 0.9 | 0.00 | 0.00 | 0.00 | 91 | 1023.6 |
| 20260506213354 | 55 | 303 | 0.9 | 1.7 | 0.00 | 0.00 | 0.00 | 89 | 1023.9 |
| 20260506212852 | 55 | 174 | 0.9 | 1.7 | 0.00 | 0.00 | 0.00 | 90 | 1023.9 |
| 20260506212347 | 55 | 224 | 1.7 | 1.7 | 0.00 | 0.00 | 0.00 | 89 | 1023.9 |
| 20260506211842 | 55 | 262 | 5.2 | 6.1 | 0.00 | 0.00 | 0.00 | 89 | 1023.9 |
| 20260506211338 | 55 | 295 | 4.3 | 6.1 | 0.00 | 0.00 | 0.00 | 89 | 1023.9 |
| 20260506210836 | 55 | 239 | 2.6 | 4.3 | 0.00 | 0.00 | 0.00 | 90 | 1023.8 |
| 20260506210333 | 55 | 171 | 0.9 | 0.9 | 0.00 | 0.00 | 0.00 | 91 | 1023.8 |
| 20260506205830 | 55 | 270 | 4.3 | 5.2 | 0.00 | 0.00 | 0.00 | 91 | 1023.9 |
| 20260506205326 | 55 | 226 | 1.7 | 1.7 | 0.00 | 0.00 | 0.00 | 91 | 1023.5 |
| 20260506204822 | 55 | 188 | 0.0 | 0.9 | 0.00 | 0.00 | 0.00 | 90 | 1023.5 |
| 20260506204320 | 55 | 217 | 0.0 | 0.0 | 0.00 | 0.00 | 0.00 | 91 | 1023.9 |
| 20260506203818 | 56 | 306 | 2.6 | 4.3 | 0.00 | 0.00 | 0.00 | 90 | 1023.7 |
| 20260506203315 | 55 | 270 | 1.7 | 1.7 | 0.00 | 0.00 | 0.00 | 90 | 1023.6 |
| 20260506202811 | 55 | 176 | 1.7 | 1.7 | 0.00 | 0.00 | 0.00 | 90 | 1023.7 |
| 20260506202308 | 56 | 248 | 5.2 | 6.1 | 0.00 | 0.00 | 0.00 | 89 | 1023.6 |
| 20260506201805 | 56 | 239 | 2.6 | 4.3 | 0.00 | 0.00 | 0.00 | 89 | 1023.6 |
| 20260506201302 | 56 | 254 | 1.7 | 1.7 | 0.00 | 0.00 | 0.00 | 89 | 1023.7 |
| 20260506200759 | 56 | 298 | 2.6 | 4.3 | 0.00 | 0.00 | 0.00 | 89 | 1023.4 |
| 20260506200255 | 56 | 273 | 0.0 | 0.9 | 0.00 | 0.00 | 0.00 | 89 | 1023.5 |
| 20260506195751 | 57 | 272 | 2.6 | 2.6 | 0.00 | 0.00 | 0.00 | 88 | 1023.4 |
| 20260506195248 | 56 | 285 | 0.9 | 0.9 | 0.00 | 0.00 | 0.00 | 88 | 1023.4 |
| 20260506194746 | 57 | 263 | 1.7 | 1.7 | 0.00 | 0.00 | 0.00 | 87 | 1023.4 |
| 20260506194242 | 57 | 286 | 0.9 | 0.9 | 0.00 | 0.00 | 0.00 | 87 | 1023.4 |
| 20260506193740 | 56 | 279 | 0.9 | 0.9 | 0.00 | 0.00 | 0.00 | 90 | 1023.2 |
| 20260506193236 | 55 | 271 | 0.9 | 0.9 | 0.00 | 0.00 | 0.00 | 91 | 1023.5 |
| 20260506192732 | 55 | 262 | 2.6 | 2.6 | 0.00 | 0.00 | 0.00 | 90 | 1023.4 |
| 20260506192229 | 56 | 211 | 1.7 | 1.7 | 0.00 | 0.00 | 0.00 | 90 | 1023.3 |
| 20260506191726 | 55 | 161 | 0.9 | 0.9 | 0.00 | 0.00 | 0.00 | 90 | 1023.3 |
| 20260506191222 | 55 | 224 | 0.9 | 0.9 | 0.00 | 0.00 | 0.00 | 91 | 1023.2 |
| 20260506190720 | 55 | 205 | 1.7 | 1.7 | 0.00 | 0.00 | 0.00 | 92 | 1023.3 |
| 20260506190216 | 55 | 151 | 1.7 | 1.7 | 0.00 | 0.00 | 0.00 | 93 | 1023.6 |
| 20260506185714 | 55 | 234 | 2.6 | 2.6 | 0.00 | 0.00 | 0.00 | 92 | 1023.3 |
| 20260506185210 | 55 | 60 | 0.0 | 0.9 | 0.00 | 0.00 | 0.00 | 93 | 1023.5 |
| 20260506184708 | 54 | 279 | 2.6 | 4.3 | 0.00 | 0.00 | 0.00 | 93 | 1023.2 |
| 20260506184205 | 54 | 258 | 2.6 | 2.6 | 0.00 | 0.00 | 0.00 | 93 | 1023.2 |
| 20260506183701 | 54 | 284 | 2.6 | 5.2 | 0.00 | 0.00 | 0.00 | 93 | 1023.4 |
| 20260506183157 | 54 | 256 | 2.6 | 2.6 | 0.00 | 0.00 | 0.00 | 94 | 1023.3 |
| 20260506182655 | 54 | 233 | 2.6 | 4.3 | 0.00 | 0.00 | 0.00 | 95 | 1023.3 |
| 20260506182151 | 54 | 303 | 2.6 | 4.3 | 0.00 | 0.00 | 0.00 | 95 | 1023.2 |
| 20260506181650 | 55 | 287 | 3.5 | 4.3 | 0.00 | 0.00 | 0.00 | 94 | 1023.2 |
| 20260506181146 | 55 | 292 | 1.7 | 2.6 | 0.00 | 0.00 | 0.00 | 93 | 1023.1 |
| 20260506180643 | 56 | 267 | 0.9 | 1.7 | 0.00 | 0.00 | 0.00 | 92 | 1023.1 |
| 20260506180140 | 55 | 210 | 0.9 | 0.9 | 0.00 | 0.00 | 0.00 | 92 | 1022.7 |
| 20260506175636 | 55 | 140 | 0.9 | 0.9 | 0.00 | 0.00 | 0.00 | 92 | 1022.7 |
| 20260506175132 | 55 | 161 | 0.9 | 0.9 | 0.00 | 0.00 | 0.00 | 93 | 1023.0 |
| 20260506174631 | 55 | 237 | 2.6 | 2.6 | 0.00 | 0.00 | 0.00 | 93 | 1022.9 |
| 20260506174128 | 55 | 266 | 4.3 | 4.3 | 0.00 | 0.00 | 0.00 | 92 | 1022.9 |
| 20260506173626 | 55 | 208 | 0.0 | 0.0 | 0.00 | 0.00 | 0.00 | 94 | 1023.1 |
| 20260506173122 | 55 | 204 | 0.9 | 1.7 | 0.00 | 0.00 | 0.00 | 93 | 1023.2 |
| 20260506172619 | 55 | 175 | 1.7 | 1.7 | 0.00 | 0.00 | 0.00 | 92 | 1023.0 |
| 20260506172115 | 55 | 241 | 5.2 | 7.0 | 0.00 | 0.00 | 0.00 | 92 | 1023.1 |
| 20260506171613 | 55 | 251 | 0.9 | 1.7 | 0.00 | 0.00 | 0.00 | 93 | 1022.9 |
| 20260506171111 | 55 | 310 | 0.9 | 0.9 | 0.00 | 0.00 | 0.00 | 94 | 1023.1 |
| 20260506170608 | 55 | 299 | 1.7 | 1.7 | 0.00 | 0.00 | 0.00 | 94 | 1023.0 |
| 20260506170105 | 55 | 250 | 1.7 | 1.7 | 0.00 | 0.00 | 0.00 | 94 | 1023.1 |
| 20260506165604 | 55 | 246 | 1.7 | 1.7 | 0.00 | 0.00 | 0.00 | 94 | 1022.9 |
| 20260506165059 | 55 | 327 | 0.0 | 0.9 | 0.00 | 0.00 | 0.00 | 94 | 1022.8 |
| 20260506164557 | 55 | 274 | 2.6 | 2.6 | 0.00 | 0.00 | 0.00 | 94 | 1022.8 |
| 20260506164054 | 55 | 180 | 0.0 | 0.9 | 0.00 | 0.00 | 0.00 | 94 | 1022.8 |
| 20260506163549 | 55 | 199 | 0.9 | 1.7 | 0.00 | 0.00 | 0.00 | 95 | 1022.5 |
| 20260506163046 | 55 | 169 | 0.0 | 0.0 | 0.00 | 0.00 | 0.00 | 95 | 1022.4 |
| 20260506162542 | 54 | 198 | 0.9 | 1.7 | 0.00 | 0.00 | 0.00 | 95 | 1022.6 |
| 20260506162039 | 54 | 143 | 0.9 | 0.9 | 0.00 | 0.00 | 0.00 | 95 | 1022.5 |
| 20260506161537 | 54 | 181 | 0.9 | 1.7 | 0.00 | 0.00 | 0.00 | 95 | 1022.5 |
| 20260506161033 | 54 | 191 | 3.5 | 4.3 | 0.00 | 0.00 | 0.00 | 96 | 1022.2 |
| 20260506160531 | 54 | 182 | 2.6 | 2.6 | 0.00 | 0.00 | 0.00 | 96 | 1022.3 |
| 20260506160028 | 54 | 246 | 0.0 | 0.0 | 0.00 | 0.00 | 0.00 | 96 | 1022.6 |
| 20260506155527 | 54 | 132 | 0.0 | 0.0 | 0.00 | 0.00 | 0.00 | 97 | 1022.4 |
| 20260506153703 | 53 | 311 | 0.0 | 0.0 | 0.00 | 0.00 | 0.00 | 96 | 1022.8 |
| 20260506153201 | 54 | 337 | 0.0 | 0.0 | 0.00 | 0.00 | 0.00 | 97 | 1022.6 |
| 20260506152658 | 54 | 340 | 0.0 | 0.0 | 0.00 | 0.00 | 0.00 | 97 | 1022.5 |
| 20260506152155 | 53 | 303 | 0.0 | 0.0 | 0.00 | 0.00 | 0.00 | 97 | 1022.6 |
| 20260506151654 | 53 | 297 | 0.9 | 0.9 | 0.00 | 0.00 | 0.00 | 97 | 1022.6 |
| 20260506151150 | 53 | 177 | 0.0 | 0.0 | 0.00 | 0.00 | 0.00 | 97 | 1022.5 |
| 20260506150647 | 53 | 166 | 0.9 | 0.9 | 0.00 | 0.00 | 0.00 | 97 | 1022.4 |
| 20260506150144 | 53 | 152 | 0.9 | 0.9 | 0.00 | 0.00 | 0.00 | 98 | 1022.2 |
| 20260506145641 | 53 | 42 | 0.0 | 0.0 | 0.00 | 0.00 | 0.00 | 98 | 1022.6 |
| 20260506145137 | 53 | 93 | 0.0 | 0.0 | 0.00 | 0.00 | 0.00 | 98 | 1022.3 |
| 20260506144635 | 53 | 59 | 0.0 | 0.0 | 0.00 | 0.00 | 0.00 | 98 | 1022.4 |
| 20260506144131 | 53 | 58 | 0.0 | 0.0 | 0.00 | 0.00 | 0.00 | 98 | 1022.3 |
| 20260506143629 | 53 | 38 | 0.0 | 0.0 | 0.00 | 0.00 | 0.00 | 97 | 1022.3 |
| 20260506143127 | 53 | 351 | 0.0 | 0.0 | 0.00 | 0.00 | 0.00 | 97 | 1022.3 |
| 20260506142625 | 53 | 344 | 0.9 | 0.9 | 0.00 | 0.00 | 0.00 | 97 | 1022.5 |
| 20260506142123 | 53 | 16 | 0.9 | 0.9 | 0.00 | 0.00 | 0.00 | 97 | 1022.3 |
| 20260506141620 | 53 | 10 | 0.0 | 0.0 | 0.00 | 0.00 | 0.00 | 97 | 1022.4 |
| 20260506141119 | 53 | 28 | 0.0 | 0.0 | 0.00 | 0.00 | 0.00 | 97 | 1022.2 |
| 20260506140616 | 53 | 2 | 0.0 | 0.0 | 0.00 | 0.00 | 0.00 | 96 | 1022.3 |
| 20260506140113 | 53 | 353 | 0.0 | 0.0 | 0.00 | 0.00 | 0.00 | 96 | 1022.4 |
| 20260506135610 | 53 | 356 | 0.0 | 0.9 | 0.00 | 0.00 | 0.00 | 96 | 1022.4 |
| 20260506135106 | 53 | 2 | 0.0 | 0.0 | 0.00 | 0.00 | 0.00 | 96 | 1022.3 |
| 20260506134603 | 53 | 179 | 0.0 | 0.0 | 0.00 | 0.00 | 0.00 | 96 | 1022.1 |
| 20260506134058 | 53 | 318 | 0.0 | 0.0 | 0.00 | 0.00 | 0.00 | 96 | 1022.2 |
| 20260506133556 | 53 | 320 | 0.9 | 0.9 | 0.00 | 0.00 | 0.00 | 97 | 1022.3 |
| 20260506133053 | 53 | 12 | 0.0 | 0.0 | 0.00 | 0.00 | 0.00 | 97 | 1022.0 |
| 20260506132550 | 53 | 353 | 0.9 | 0.9 | 0.00 | 0.00 | 0.00 | 97 | 1022.1 |
| 20260506132047 | 53 | 32 | 0.0 | 0.0 | 0.00 | 0.00 | 0.00 | 97 | 1022.0 |
| 20260506131544 | 53 | 356 | 0.9 | 0.9 | 0.00 | 0.00 | 0.00 | 97 | 1022.1 |
| 20260506131040 | 53 | 132 | 0.0 | 0.0 | 0.00 | 0.00 | 0.00 | 97 | 1021.6 |
| 20260506130537 | 53 | 106 | 0.9 | 0.9 | 0.00 | 0.00 | 0.00 | 97 | 1021.7 |
| 20260506130035 | 53 | 66 | 0.0 | 0.0 | 0.00 | 0.00 | 0.00 | 97 | 1022.0 |
| 20260506125533 | 53 | 66 | 0.0 | 0.0 | 0.00 | 0.00 | 0.00 | 97 | 1021.8 |
| 20260506125031 | 53 | 66 | 0.0 | 0.0 | 0.00 | 0.00 | 0.00 | 97 | 1021.7 |
| 20260506124528 | 53 | 66 | 0.0 | 0.0 | 0.00 | 0.00 | 0.00 | 97 | 1021.5 |
| 20260506124026 | 53 | 66 | 0.0 | 0.0 | 0.00 | 0.00 | 0.00 | 97 | 1021.6 |
| 20260506123524 | 53 | 66 | 0.0 | 0.0 | 0.00 | 0.00 | 0.00 | 97 | 1021.6 |
| 20260506123022 | 53 | 66 | 0.0 | 0.0 | 0.00 | 0.00 | 0.00 | 96 | 1021.5 |
| 20260506122518 | 53 | 66 | 0.0 | 0.0 | 0.00 | 0.00 | 0.00 | 96 | 1021.6 |
| 20260506122016 | 53 | 137 | 0.0 | 0.0 | 0.00 | 0.00 | 0.00 | 96 | 1021.7 |
| 20260506121514 | 53 | 61 | 0.0 | 0.0 | 0.00 | 0.00 | 0.00 | 96 | 1021.6 |
| 20260506121009 | 53 | 41 | 0.0 | 0.0 | 0.00 | 0.00 | 0.00 | 96 | 1021.6 |
| 20260506120508 | 53 | 21 | 0.0 | 0.0 | 0.00 | 0.00 | 0.00 | 96 | 1021.6 |
| 20260506120005 | 53 | 31 | 0.0 | 0.0 | 0.00 | 0.00 | 0.00 | 96 | 1021.6 |
| 20260506115502 | 53 | 68 | 0.0 | 0.0 | 0.00 | 0.00 | 0.00 | 96 | 1021.3 |
| 20260506115001 | 53 | 68 | 0.0 | 0.0 | 0.00 | 0.00 | 0.00 | 96 | 1021.3 |
| 20260506114458 | 53 | 85 | 0.0 | 0.0 | 0.00 | 0.00 | 0.00 | 96 | 1021.4 |
| 20260506113956 | 53 | 85 | 0.0 | 0.0 | 0.00 | 0.00 | 0.00 | 95 | 1021.2 |
| 20260506113454 | 53 | 75 | 0.0 | 0.0 | 0.00 | 0.00 | 0.00 | 95 | 1021.2 |
| 20260506112950 | 53 | 77 | 0.9 | 0.9 | 0.00 | 0.00 | 0.00 | 95 | 1021.3 |
| 20260506112448 | 53 | 127 | 0.0 | 0.0 | 0.00 | 0.00 | 0.00 | 94 | 1021.2 |
| 20260506111944 | 53 | 137 | 0.0 | 0.0 | 0.00 | 0.00 | 0.00 | 94 | 1021.2 |
| 20260506111443 | 53 | 248 | 0.0 | 0.0 | 0.00 | 0.00 | 0.00 | 94 | 1021.3 |
| 20260506110939 | 53 | 328 | 0.0 | 0.0 | 0.00 | 0.00 | 0.00 | 95 | 1021.4 |
| 20260506110437 | 53 | 125 | 0.0 | 0.0 | 0.00 | 0.00 | 0.00 | 95 | 1021.2 |
| 20260506105933 | 53 | 283 | 0.0 | 0.9 | 0.00 | 0.00 | 0.00 | 95 | 1021.0 |
| 20260506105430 | 53 | 253 | 0.0 | 0.0 | 0.00 | 0.00 | 0.00 | 95 | 1021.1 |
| 20260506104927 | 53 | 324 | 0.0 | 0.0 | 0.00 | 0.00 | 0.00 | 95 | 1020.8 |
| 20260506104425 | 53 | 327 | 0.9 | 0.9 | 0.00 | 0.00 | 0.00 | 95 | 1021.0 |
| 20260506103923 | 53 | 250 | 0.0 | 0.0 | 0.00 | 0.00 | 0.00 | 95 | 1020.9 |
| 20260506103420 | 53 | 272 | 0.0 | 0.0 | 0.00 | 0.00 | 0.00 | 95 | 1021.0 |
| 20260506102917 | 53 | 322 | 0.0 | 0.0 | 0.00 | 0.00 | 0.00 | 95 | 1020.9 |
| 20260506102415 | 53 | 243 | 0.0 | 0.0 | 0.00 | 0.00 | 0.00 | 95 | 1020.8 |
| 20260506101912 | 53 | 267 | 0.9 | 0.9 | 0.00 | 0.00 | 0.00 | 95 | 1020.9 |
| 20260506101408 | 53 | 247 | 1.7 | 1.7 | 0.00 | 0.00 | 0.00 | 96 | 1020.8 |
| 20260506100906 | 53 | 286 | 1.7 | 1.7 | 0.00 | 0.00 | 0.00 | 98 | 1020.5 |
| 20260506100404 | 53 | 329 | 0.0 | 0.0 | 0.00 | 0.00 | 0.00 | 99 | 1020.6 |
| 20260506095902 | 53 | 278 | 0.0 | 0.0 | 0.00 | 0.00 | 0.00 | 99 | 1020.7 |
| 20260506095400 | 52 | 280 | 0.0 | 0.0 | 0.00 | 0.00 | 0.00 | 99 | 1020.6 |
| 20260506094856 | 52 | 306 | 0.0 | 0.9 | 0.00 | 0.00 | 0.00 | 99 | 1020.4 |
| 20260506094355 | 52 | 321 | 0.0 | 0.0 | 0.00 | 0.00 | 0.00 | 99 | 1020.5 |
| 20260506093852 | 51 | 184 | 0.0 | 0.0 | 0.00 | 0.00 | 0.00 | 99 | 1020.6 |
| 20260506093350 | 51 | 20 | 0.0 | 0.0 | 0.00 | 0.00 | 0.00 | 99 | 1020.5 |
| 20260506092847 | 51 | 55 | 0.9 | 0.9 | 0.00 | 0.00 | 0.00 | 99 | 1020.5 |
| 20260506092345 | 51 | 68 | 0.0 | 0.0 | 0.00 | 0.00 | 0.00 | 99 | 1020.5 |
| 20260506091841 | 51 | 68 | 0.0 | 0.0 | 0.00 | 0.00 | 0.00 | 99 | 1020.1 |
| 20260506091340 | 50 | 69 | 0.0 | 0.0 | 0.00 | 0.00 | 0.00 | 99 | 1020.4 |
| 20260506090837 | 50 | 50 | 0.0 | 0.0 | 0.00 | 0.00 | 0.00 | 99 | 1020.3 |
| 20260506090334 | 51 | 50 | 0.0 | 0.0 | 0.00 | 0.00 | 0.00 | 99 | 1020.3 |
| 20260506085831 | 50 | 49 | 0.0 | 0.0 | 0.00 | 0.00 | 0.00 | 99 | 1020.2 |
| 20260506085327 | 51 | 61 | 0.0 | 0.0 | 0.00 | 0.00 | 0.00 | 99 | 1020.2 |
| 20260506084824 | 50 | 50 | 0.0 | 0.0 | 0.00 | 0.00 | 0.00 | 99 | 1020.1 |
| 20260506084320 | 51 | 69 | 0.0 | 0.0 | 0.00 | 0.00 | 0.00 | 99 | 1020.0 |
| 20260506083817 | 51 | 69 | 0.0 | 0.0 | 0.00 | 0.00 | 0.00 | 99 | 1020.0 |
| 20260506083314 | 51 | 69 | 0.0 | 0.0 | 0.00 | 0.00 | 0.00 | 99 | 1019.9 |
| 20260506082812 | 51 | 69 | 0.0 | 0.0 | 0.00 | 0.00 | 0.00 | 99 | 1020.1 |
| 20260506082308 | 51 | 69 | 0.0 | 0.0 | 0.00 | 0.00 | 0.00 | 99 | 1020.1 |
| 20260506081805 | 51 | 69 | 0.0 | 0.0 | 0.00 | 0.00 | 0.00 | 99 | 1019.9 |
| 20260506081303 | 51 | 69 | 0.0 | 0.0 | 0.00 | 0.00 | 0.00 | 99 | 1020.0 |
| 20260506080800 | 51 | 69 | 0.0 | 0.0 | 0.00 | 0.00 | 0.00 | 99 | 1020.1 |
| 20260506080256 | 51 | 69 | 0.0 | 0.0 | 0.00 | 0.00 | 0.00 | 99 | 1019.8 |
| 20260506073240 | 51 | 69 | 0.0 | 0.0 | 0.00 | 0.00 | 0.00 | 99 | 1019.6 |
| 20260506072737 | 51 | 69 | 0.0 | 0.0 | 0.00 | 0.00 | 0.00 | 99 | 1019.7 |
| 20260506072235 | 51 | 69 | 0.0 | 0.0 | 0.00 | 0.00 | 0.00 | 99 | 1019.9 |
| 20260506071732 | 52 | 69 | 0.0 | 0.0 | 0.00 | 0.00 | 0.00 | 99 | 1019.7 |
| 20260506071230 | 52 | 69 | 0.0 | 0.0 | 0.00 | 0.00 | 0.00 | 99 | 1020.0 |
| 20260506070727 | 52 | 62 | 0.0 | 0.0 | 0.00 | 0.00 | 0.00 | 99 | 1019.8 |
| 20260506070224 | 52 | 62 | 0.0 | 0.0 | 0.00 | 0.00 | 0.00 | 99 | 1019.7 |
| 20260506062201 | 53 | 69 | 0.0 | 0.0 | 0.00 | 0.00 | 0.00 | 98 | 1019.2 |
| 20260506061656 | 53 | 69 | 0.0 | 0.9 | 0.00 | 0.00 | 0.00 | 98 | 1019.4 |
| 20260506061154 | 53 | 69 | 0.9 | 0.9 | 0.00 | 0.00 | 0.00 | 97 | 1019.2 |
| 20260506060653 | 53 | 63 | 0.0 | 0.0 | 0.00 | 0.00 | 0.00 | 97 | 1019.2 |
| 20260506060149 | 53 | 69 | 0.9 | 0.9 | 0.00 | 0.00 | 0.00 | 97 | 1019.2 |
| 20260506051121 | 55 | 100 | 0.0 | 0.0 | 0.00 | 0.00 | 0.00 | 95 | 1018.7 |
| 20260506050619 | 55 | 100 | 0.0 | 0.0 | 0.00 | 0.00 | 0.00 | 95 | 1018.6 |
| 20260506050116 | 55 | 100 | 0.0 | 0.9 | 0.00 | 0.00 | 0.00 | 94 | 1018.4 |
| 20260506045109 | 55 | 100 | 0.9 | 0.9 | 0.00 | 0.00 | 0.00 | 94 | 1018.5 |
| 20260506044608 | 55 | 100 | 0.9 | 0.9 | 0.00 | 0.00 | 0.00 | 94 | 1018.8 |
| 20260506044104 | 55 | 100 | 0.9 | 0.9 | 0.00 | 0.00 | 0.00 | 94 | 1018.5 |
| 20260506043601 | 55 | 100 | 0.9 | 0.9 | 0.00 | 0.00 | 0.00 | 94 | 1018.7 |
| 20260506043059 | 55 | 101 | 0.9 | 0.9 | 0.00 | 0.00 | 0.00 | 94 | 1018.5 |
| 20260506042558 | 55 | 101 | 0.0 | 0.0 | 0.00 | 0.00 | 0.00 | 94 | 1018.6 |
| 20260506042056 | 55 | 101 | 0.9 | 0.9 | 0.00 | 0.00 | 0.00 | 93 | 1018.4 |
| 20260506041554 | 56 | 101 | 0.9 | 0.9 | 0.00 | 0.00 | 0.00 | 93 | 1018.5 |
| 20260506041051 | 56 | 101 | 0.9 | 0.9 | 0.00 | 0.00 | 0.00 | 93 | 1018.6 |
| 20260506040549 | 56 | 101 | 0.9 | 0.9 | 0.00 | 0.00 | 0.00 | 92 | 1018.5 |
| 20260506040044 | 56 | 101 | 0.9 | 0.9 | 0.00 | 0.00 | 0.00 | 92 | 1018.5 |
| 20260506035542 | 56 | 101 | 0.9 | 0.9 | 0.00 | 0.00 | 0.00 | 92 | 1018.5 |
| 20260506035038 | 57 | 101 | 0.0 | 0.9 | 0.00 | 0.00 | 0.00 | 91 | 1018.3 |
| 20260506034536 | 57 | 101 | 0.0 | 0.0 | 0.00 | 0.00 | 0.00 | 91 | 1018.5 |
| 20260506034032 | 57 | 101 | 0.9 | 0.9 | 0.00 | 0.00 | 0.00 | 90 | 1018.1 |
| 20260506033530 | 57 | 101 | 0.9 | 0.9 | 0.00 | 0.00 | 0.00 | 89 | 1018.2 |
| 20260506033027 | 58 | 108 | 0.9 | 0.9 | 0.00 | 0.00 | 0.00 | 89 | 1018.1 |
| 20260506032524 | 58 | 122 | 0.9 | 0.9 | 0.00 | 0.00 | 0.00 | 88 | 1018.1 |
| 20260506032021 | 59 | 122 | 0.9 | 0.9 | 0.00 | 0.00 | 0.00 | 87 | 1018.1 |
| 20260506031519 | 59 | 123 | 0.9 | 0.9 | 0.00 | 0.00 | 0.00 | 85 | 1017.9 |
| 20260506031015 | 60 | 152 | 0.0 | 0.9 | 0.00 | 0.00 | 0.00 | 83 | 1018.0 |
| 20260506030513 | 61 | 152 | 0.9 | 0.9 | 0.00 | 0.00 | 0.00 | 81 | 1018.2 |
| 20260506030010 | 62 | 183 | 0.0 | 0.0 | 0.00 | 0.00 | 0.00 | 79 | 1018.0 |
| 20260506025507 | 63 | 184 | 0.0 | 0.0 | 0.00 | 0.00 | 0.00 | 77 | 1018.1 |
| 20260506025003 | 63 | 195 | 0.9 | 0.9 | 0.00 | 0.00 | 0.00 | 75 | 1017.9 |
| 20260506024500 | 64 | 176 | 0.9 | 0.9 | 0.00 | 0.00 | 0.00 | 74 | 1018.1 |
| 20260506023956 | 64 | 255 | 0.0 | 0.9 | 0.00 | 0.00 | 0.00 | 73 | 1017.7 |
| 20260506023453 | 64 | 213 | 0.0 | 0.0 | 0.00 | 0.00 | 0.00 | 73 | 1017.8 |
| 20260506022950 | 64 | 191 | 0.9 | 0.9 | 0.00 | 0.00 | 0.00 | 73 | 1017.9 |
| 20260506022447 | 64 | 161 | 2.6 | 2.6 | 0.00 | 0.00 | 0.00 | 73 | 1018.0 |
| 20260506021945 | 65 | 194 | 0.9 | 0.9 | 0.00 | 0.00 | 0.00 | 72 | 1017.9 |
| 20260506021442 | 64 | 319 | 1.7 | 1.7 | 0.00 | 0.00 | 0.00 | 72 | 1017.9 |
| 20260506020939 | 65 | 289 | 2.6 | 2.6 | 0.00 | 0.00 | 0.00 | 71 | 1018.0 |
| 20260506020437 | 65 | 315 | 0.9 | 0.9 | 0.00 | 0.00 | 0.00 | 70 | 1018.0 |
| 20260506015934 | 66 | 212 | 0.9 | 0.9 | 0.00 | 0.00 | 0.00 | 71 | 1017.8 |
| 20260506015431 | 64 | 301 | 0.9 | 0.9 | 0.00 | 0.00 | 0.00 | 72 | 1018.1 |
| 20260506014928 | 64 | 190 | 1.7 | 1.7 | 0.00 | 0.00 | 0.00 | 72 | 1017.8 |
| 20260506014425 | 65 | 188 | 1.7 | 1.7 | 0.00 | 0.00 | 0.00 | 71 | 1017.8 |
| 20260506013921 | 65 | 270 | 2.6 | 2.6 | 0.00 | 0.00 | 0.00 | 71 | 1017.9 |
| 20260506013420 | 66 | 278 | 0.9 | 0.9 | 0.00 | 0.00 | 0.00 | 70 | 1017.9 |
| 20260506012916 | 66 | 273 | 0.9 | 0.9 | 0.00 | 0.00 | 0.00 | 70 | 1017.8 |
| 20260506012412 | 65 | 272 | 1.7 | 1.7 | 0.00 | 0.00 | 0.00 | 70 | 1018.0 |
| 20260506011909 | 65 | 282 | 0.9 | 0.9 | 0.00 | 0.00 | 0.00 | 70 | 1018.0 |
| 20260506011407 | 65 | 236 | 0.9 | 0.9 | 0.00 | 0.00 | 0.00 | 71 | 1017.9 |
| 20260506010903 | 65 | 184 | 1.7 | 1.7 | 0.00 | 0.00 | 0.00 | 71 | 1017.6 |
| 20260506010402 | 65 | 230 | 0.9 | 1.7 | 0.00 | 0.00 | 0.00 | 71 | 1018.0 |
| 20260506005858 | 64 | 6 | 0.0 | 0.9 | 0.00 | 0.00 | 0.00 | 71 | 1018.0 |
| 20260506005356 | 64 | 187 | 1.7 | 2.6 | 0.00 | 0.00 | 0.00 | 71 | 1018.1 |
| 20260506004851 | 64 | 154 | 2.6 | 2.6 | 0.00 | 0.00 | 0.00 | 72 | 1018.0 |
| 20260506004349 | 64 | 19 | 0.9 | 1.7 | 0.00 | 0.00 | 0.00 | 73 | 1018.0 |
| 20260506003845 | 64 | 297 | 3.5 | 4.3 | 0.00 | 0.00 | 0.00 | 72 | 1018.2 |
| 20260506003341 | 65 | 142 | 1.7 | 1.7 | 0.00 | 0.00 | 0.00 | 72 | 1018.2 |
| 20260506002838 | 64 | 252 | 0.9 | 1.7 | 0.00 | 0.00 | 0.00 | 72 | 1018.2 |
| 20260506002334 | 64 | 332 | 0.0 | 0.0 | 0.00 | 0.00 | 0.00 | 73 | 1017.9 |
| 20260506001830 | 64 | 155 | 1.7 | 1.7 | 0.00 | 0.00 | 0.00 | 71 | 1018.1 |
| 20260506001327 | 65 | 186 | 1.7 | 1.7 | 0.00 | 0.00 | 0.00 | 73 | 1018.1 |
| 20260506000824 | 64 | 245 | 1.7 | 1.7 | 0.00 | 0.00 | 0.00 | 72 | 1018.2 |
| 20260506000323 | 63 | 13 | 1.7 | 1.7 | 0.00 | 0.00 | 0.00 | 75 | 1018.3 |
| 20260505235818 | 63 | 208 | 2.6 | 2.6 | 0.00 | 0.00 | 0.00 | 76 | 1018.5 |
| 20260505235316 | 62 | 182 | 2.6 | 2.6 | 0.00 | 0.00 | 0.00 | 75 | 1018.5 |
| 20260505234813 | 62 | 195 | 1.7 | 1.7 | 0.00 | 0.00 | 0.00 | 76 | 1018.6 |
| 20260505234311 | 62 | 123 | 0.9 | 1.7 | 0.00 | 0.00 | 0.00 | 76 | 1018.5 |
| 20260505233807 | 62 | 81 | 0.0 | 0.0 | 0.00 | 0.00 | 0.00 | 76 | 1018.6 |
| 20260505233305 | 62 | 155 | 0.9 | 0.9 | 0.00 | 0.00 | 0.00 | 75 | 1018.6 |
| 20260505232802 | 62 | 265 | 4.3 | 5.2 | 0.00 | 0.00 | 0.00 | 76 | 1018.7 |
| 20260505232259 | 61 | 351 | 2.6 | 2.6 | 0.00 | 0.00 | 0.00 | 78 | 1018.8 |
| 20260505231756 | 61 | 61 | 0.9 | 1.7 | 0.00 | 0.00 | 0.00 | 78 | 1018.8 |